Ocean Navigator — WSC2552 — position and weather

sailwx.info

Track history (hours):
 
Tides and Currents Weather Stations Pressure Air Temp Water Temp Dewpoint Dewpoint Depression Visibility Wind Speed Wind Dir Waves Ship Positions

Ocean Navigator

Owner: OCEAN NAVIGATOR INC, SEATTLE, WA. More information available from US FCC via Universal Licensing System and Coast Guard Vessel Documentation Center.

Last reported at 2016-Jul-28 23:32 UTC. Time now 2016-Jul-29 00:14 UTC.
Position N 49°29' W 124°25'.

MMSI: 366358000.

Date/timePositionNaut miles runAvg speedWind from/ knotsBaromVisibWave heightAir tempDewpointWater temp
2016-Jul-28 23:32N 49°29' W 124°25'8 8.1
2016-Jul-28 22:31N 49°25' W 124°15'8 7.7
2016-Jul-28 21:32N 49°21' W 124°05'7 7.4
2016-Jul-28 20:33N 49°17' W 123°55'7 7.0
2016-Jul-28 19:30N 49°14' W 123°46'6 6.4
2016-Jul-28 18:33N 49°11' W 123°38'7 6.6
2016-Jul-28 17:28N 49°07' W 123°28'17 7.4
2016-Jul-28 15:11N 48°56' W 123°08'11 6.9
2016-Jul-28 13:32N 48°49' W 122°55'6 6.2
2016-Jul-28 12:32N 48°46' W 122°47'6 6.6
2016-Jul-28 11:33N 48°40' W 122°42'6 5.6
2016-Jul-28 10:33N 48°35' W 122°45'6 6.1
2016-Jul-28 09:33N 48°29' W 122°44'30 7.5
2016-Jul-28 05:33N 47°59' W 122°35'8 8.1
2016-Jul-28 04:33N 47°53' W 122°28'9 8.6
2016-Jul-28 03:33N 47°44' W 122°26'8 7.7
2016-Jul-28 02:33N 47°37' W 122°24'2 1.9
2016-Jul-28 01:33N 47°35' W 122°22'0 0.0
2016-Jul-28 00:33N 47°35' W 122°22'0 0.0
2016-Jul-27 23:33N 47°35' W 122°22'0 0.0
2016-Jul-27 22:33N 47°35' W 122°22'5 5.2
2016-Jul-27 21:33N 47°40' W 122°27'3 3.1
2016-Jul-27 20:33N 47°39' W 122°22'0 0.0
2016-Jul-27 11:28N 47°39' W 122°22'3 2.9
2016-Jul-27 10:34N 47°41' W 122°25'7 6.7
2016-Jul-27 09:33N 47°48' W 122°25'10 9.6
2016-Jul-27 08:33N 47°57' W 122°19'3 2.9
2016-Jul-27 07:33N 47°58' W 122°15'10 9.6
2016-Jul-27 06:34N 47°50' W 122°24'9 9.0
2016-Jul-27 05:34N 47°41' W 122°25'6 6.0
2016-Jul-27 04:33N 47°35' W 122°22'6 5.7
2016-Jul-27 03:34N 47°39' W 122°28'1010.2
2016-Jul-27 02:34N 47°50' W 122°28'1110.2
2016-Jul-27 01:31N 47°59' W 122°36'20 9.9
2016-Jul-26 23:30N 48°17' W 122°48'1010.7
2016-Jul-26 22:34N 48°27' W 122°45'1110.8
2016-Jul-26 21:33N 48°37' W 122°38'9 8.8
2016-Jul-26 20:34N 48°44' W 122°31'0 0.0
2016-Jul-26 13:31N 48°44' W 122°30'3 3.6
2016-Jul-26 12:34N 48°41' W 122°33'6 6.4
2016-Jul-26 11:34N 48°36' W 122°39'7 6.9
2016-Jul-26 10:33N 48°30' W 122°43'6 6.0
2016-Jul-26 09:33N 48°24' W 122°44'21 6.7
2016-Jul-26 06:28N 48°03' W 122°38'9 9.8
2016-Jul-26 05:34N 47°56' W 122°30'9 8.9
2016-Jul-26 04:34N 47°48' W 122°26'9 8.7
2016-Jul-26 03:34N 47°39' W 122°27'6 6.0
2016-Jul-26 02:33N 47°34' W 122°21'6 6.1
2016-Jul-26 01:34N 47°40' W 122°24'2 1.7
2016-Jul-26 00:33N 47°39' W 122°22'  
2016-Jul-20 17:33N 47°40' W 122°24'5 5.0
2016-Jul-20 16:33N 47°35' W 122°22'2 1.6
2016-Jul-20 15:33N 47°36' W 122°23'6 6.1
2016-Jul-20 14:33N 47°41' W 122°28'6 6.3
2016-Jul-20 13:33N 47°48' W 122°27'7 6.5
2016-Jul-20 12:33N 47°54' W 122°30'15 7.2
2016-Jul-20 10:32N 48°07' W 122°41'16 8.3
2016-Jul-20 08:33N 48°23' W 122°46'9 8.5
2016-Jul-20 07:33N 48°31' W 122°45'9 9.4
2016-Jul-20 06:34N 48°40' W 122°43'8 8.4
2016-Jul-20 05:33N 48°47' W 122°52'8 7.7
2016-Jul-20 04:33N 48°51' W 123°02'8 8.3
2016-Jul-20 03:33N 48°56' W 123°11'9 8.6
2016-Jul-20 02:33N 49°02' W 123°21'8 8.0
2016-Jul-20 01:33N 49°08' W 123°28'7 7.2
2016-Jul-20 00:33N 49°15' W 123°34'8 7.4
2016-Jul-19 23:32N 49°21' W 123°40'7 7.1
2016-Jul-19 22:33N 49°27' W 123°45'1 1.1
2016-Jul-19 21:34N 49°28' W 123°45'0 0.0
2016-Jul-19 20:33N 49°28' W 123°45'3 2.7
2016-Jul-19 19:33N 49°25' W 123°45'7 6.6
2016-Jul-19 18:28N 49°19' W 123°39'5 5.6
2016-Jul-19 17:33N 49°15' W 123°34'5 5.1
2016-Jul-19 16:33N 49°11' W 123°29'5 5.3
2016-Jul-19 15:33N 49°07' W 123°25'6 6.0
2016-Jul-19 14:33N 49°03' W 123°18'5 5.3
2016-Jul-19 13:33N 48°60' W 123°12'5 5.4
2016-Jul-19 12:33N 48°56' W 123°06'5 5.3
2016-Jul-19 11:33N 48°53' W 122°60'7 6.5
2016-Jul-19 10:31N 48°48' W 122°52'8 8.5
2016-Jul-19 09:33N 48°42' W 122°43'9 9.4
2016-Jul-19 08:33N 48°33' W 122°45'1010.0
2016-Jul-19 07:33N 48°23' W 122°44'29 9.7
2016-Jul-19 04:34N 47°55' W 122°29'1110.7
2016-Jul-19 03:33N 47°45' W 122°26'9 8.9
2016-Jul-19 02:34N 47°36' W 122°23'4 4.4
2016-Jul-19 01:33N 47°40' W 122°26'3 2.9
2016-Jul-19 00:34N 47°39' W 122°22'0 0.0
2016-Jul-18 23:33N 47°39' W 122°22'  
Track history (hours):
 
Tides and Currents Weather Stations Pressure Air Temp Water Temp Dewpoint Dewpoint Depression Visibility Wind Speed Wind Dir Waves Ship Positions

Ocean Navigator

Owner: OCEAN NAVIGATOR INC, SEATTLE, WA. More information available from US FCC via Universal Licensing System and Coast Guard Vessel Documentation Center.

Last reported at 2016-Jul-28 23:32 UTC. Time now 2016-Jul-29 00:14 UTC.
Position N 49°29' W 124°25'.

MMSI: 366358000.

Date/timePositionNaut miles runAvg speedWind from/ knotsBaromVisibWave heightAir tempDewpointWater temp
2016-Jul-28 23:32N 49°29' W 124°25'8 8.1
2016-Jul-28 22:31N 49°25' W 124°15'8 7.7
2016-Jul-28 21:32N 49°21' W 124°05'7 7.4
2016-Jul-28 20:33N 49°17' W 123°55'7 7.0
2016-Jul-28 19:30N 49°14' W 123°46'6 6.4
2016-Jul-28 18:33N 49°11' W 123°38'7 6.6
2016-Jul-28 17:28N 49°07' W 123°28'17 7.4
2016-Jul-28 15:11N 48°56' W 123°08'11 6.9
2016-Jul-28 13:32N 48°49' W 122°55'6 6.2
2016-Jul-28 12:32N 48°46' W 122°47'6 6.6
2016-Jul-28 11:33N 48°40' W 122°42'6 5.6
2016-Jul-28 10:33N 48°35' W 122°45'6 6.1
2016-Jul-28 09:33N 48°29' W 122°44'30 7.5
2016-Jul-28 05:33N 47°59' W 122°35'8 8.1
2016-Jul-28 04:33N 47°53' W 122°28'9 8.6
2016-Jul-28 03:33N 47°44' W 122°26'8 7.7
2016-Jul-28 02:33N 47°37' W 122°24'2 1.9
2016-Jul-28 01:33N 47°35' W 122°22'0 0.0
2016-Jul-28 00:33N 47°35' W 122°22'0 0.0
2016-Jul-27 23:33N 47°35' W 122°22'0 0.0
2016-Jul-27 22:33N 47°35' W 122°22'5 5.2
2016-Jul-27 21:33N 47°40' W 122°27'3 3.1
2016-Jul-27 20:33N 47°39' W 122°22'0 0.0
2016-Jul-27 11:28N 47°39' W 122°22'3 2.9
2016-Jul-27 10:34N 47°41' W 122°25'7 6.7
2016-Jul-27 09:33N 47°48' W 122°25'10 9.6
2016-Jul-27 08:33N 47°57' W 122°19'3 2.9
2016-Jul-27 07:33N 47°58' W 122°15'10 9.6
2016-Jul-27 06:34N 47°50' W 122°24'9 9.0
2016-Jul-27 05:34N 47°41' W 122°25'6 6.0
2016-Jul-27 04:33N 47°35' W 122°22'6 5.7
2016-Jul-27 03:34N 47°39' W 122°28'1010.2
2016-Jul-27 02:34N 47°50' W 122°28'1110.2
2016-Jul-27 01:31N 47°59' W 122°36'20 9.9
2016-Jul-26 23:30N 48°17' W 122°48'1010.7
2016-Jul-26 22:34N 48°27' W 122°45'1110.8
2016-Jul-26 21:33N 48°37' W 122°38'9 8.8
2016-Jul-26 20:34N 48°44' W 122°31'0 0.0
2016-Jul-26 13:31N 48°44' W 122°30'3 3.6
2016-Jul-26 12:34N 48°41' W 122°33'6 6.4
2016-Jul-26 11:34N 48°36' W 122°39'7 6.9
2016-Jul-26 10:33N 48°30' W 122°43'6 6.0
2016-Jul-26 09:33N 48°24' W 122°44'21 6.7
2016-Jul-26 06:28N 48°03' W 122°38'9 9.8
2016-Jul-26 05:34N 47°56' W 122°30'9 8.9
2016-Jul-26 04:34N 47°48' W 122°26'9 8.7
2016-Jul-26 03:34N 47°39' W 122°27'6 6.0
2016-Jul-26 02:33N 47°34' W 122°21'6 6.1
2016-Jul-26 01:34N 47°40' W 122°24'2 1.7
2016-Jul-26 00:33N 47°39' W 122°22'  
2016-Jul-20 17:33N 47°40' W 122°24'5 5.0
2016-Jul-20 16:33N 47°35' W 122°22'2 1.6
2016-Jul-20 15:33N 47°36' W 122°23'6 6.1
2016-Jul-20 14:33N 47°41' W 122°28'6 6.3
2016-Jul-20 13:33N 47°48' W 122°27'7 6.5
2016-Jul-20 12:33N 47°54' W 122°30'15 7.2
2016-Jul-20 10:32N 48°07' W 122°41'16 8.3
2016-Jul-20 08:33N 48°23' W 122°46'9 8.5
2016-Jul-20 07:33N 48°31' W 122°45'9 9.4
2016-Jul-20 06:34N 48°40' W 122°43'8 8.4
2016-Jul-20 05:33N 48°47' W 122°52'8 7.7
2016-Jul-20 04:33N 48°51' W 123°02'8 8.3
2016-Jul-20 03:33N 48°56' W 123°11'9 8.6
2016-Jul-20 02:33N 49°02' W 123°21'8 8.0
2016-Jul-20 01:33N 49°08' W 123°28'7 7.2
2016-Jul-20 00:33N 49°15' W 123°34'8 7.4
2016-Jul-19 23:32N 49°21' W 123°40'7 7.1
2016-Jul-19 22:33N 49°27' W 123°45'1 1.1
2016-Jul-19 21:34N 49°28' W 123°45'0 0.0
2016-Jul-19 20:33N 49°28' W 123°45'3 2.7
2016-Jul-19 19:33N 49°25' W 123°45'7 6.6
2016-Jul-19 18:28N 49°19' W 123°39'5 5.6
2016-Jul-19 17:33N 49°15' W 123°34'5 5.1
2016-Jul-19 16:33N 49°11' W 123°29'5 5.3
2016-Jul-19 15:33N 49°07' W 123°25'6 6.0
2016-Jul-19 14:33N 49°03' W 123°18'5 5.3
2016-Jul-19 13:33N 48°60' W 123°12'5 5.4
2016-Jul-19 12:33N 48°56' W 123°06'5 5.3
2016-Jul-19 11:33N 48°53' W 122°60'7 6.5
2016-Jul-19 10:31N 48°48' W 122°52'8 8.5
2016-Jul-19 09:33N 48°42' W 122°43'9 9.4
2016-Jul-19 08:33N 48°33' W 122°45'1010.0
2016-Jul-19 07:33N 48°23' W 122°44'29 9.7
2016-Jul-19 04:34N 47°55' W 122°29'1110.7
2016-Jul-19 03:33N 47°45' W 122°26'9 8.9
2016-Jul-19 02:34N 47°36' W 122°23'4 4.4
2016-Jul-19 01:33N 47°40' W 122°26'3 2.9
2016-Jul-19 00:34N 47°39' W 122°22'0 0.0
2016-Jul-18 23:33N 47°39' W 122°22'  

Dump ship's entire track history